Time,TemperatureF,DewpointF,PressureIn,WindDirection,WindDirectionDegrees,WindSpeedMPH,WindSpeedGustMPH,Humidity,HourlyPrecipIn,Conditions,Clouds,dailyrainin,SoftwareType,DateUTC
2013-04-12 00:00:00,62.3,60.6,29.66,South,174,0.0,0.0,94,0.16,,,0.00,Wunderground v.1.15,2013-04-12 04:00:00,
2013-04-12 00:10:00,62.0,60.3,29.64,SSW,201,0.0,0.0,94,0.14,,,0.04,Wunderground v.1.15,2013-04-12 04:10:00,
2013-04-12 00:15:00,61.8,60.1,29.63,SSW,206,1.0,1.0,94,0.14,,,0.05,Wunderground v.1.15,2013-04-12 04:15:00,
2013-04-12 00:20:00,61.6,60.2,29.64,South,176,1.0,1.0,95,0.12,,,0.06,Wunderground v.1.15,2013-04-12 04:20:00,
2013-04-12 00:25:00,61.5,60.1,29.63,South,175,1.0,1.0,95,0.14,,,0.07,Wunderground v.1.15,2013-04-12 04:25:00,
2013-04-12 00:35:00,61.3,59.9,29.64,South,186,0.0,0.0,95,0.09,,,0.08,Wunderground v.1.15,2013-04-12 04:35:00,
2013-04-12 00:40:00,61.2,59.8,29.65,SSW,205,1.0,6.0,95,0.14,,,0.10,Wunderground v.1.15,2013-04-12 04:40:00,
2013-04-12 00:50:00,61.0,59.6,29.65,SSW,202,3.0,14.0,95,0.13,,,0.13,Wunderground v.1.15,2013-04-12 04:50:00,
2013-04-12 01:00:00,60.9,58.6,29.66,SSW,195,11.0,15.0,92,0.16,,,0.15,Wunderground v.1.15,2013-04-12 05:00:00,
2013-04-12 01:10:00,59.9,57.6,29.65,SW,214,13.0,13.0,92,0.30,,,0.19,Wunderground v.1.15,2013-04-12 05:10:00,
2013-04-12 01:20:00,59.2,57.5,29.65,SSW,208,11.0,11.0,94,0.25,,,0.23,Wunderground v.1.15,2013-04-12 05:20:00,
2013-04-12 01:25:00,59.0,57.6,29.66,SSW,198,9.0,11.0,95,0.15,,,0.25,Wunderground v.1.15,2013-04-12 05:25:00,
2013-04-12 01:30:00,58.9,57.5,29.65,SSW,205,8.0,8.0,95,0.18,,,0.26,Wunderground v.1.15,2013-04-12 05:30:00,
2013-04-12 01:40:00,58.6,57.8,29.65,SW,219,6.0,6.0,97,0.23,,,0.29,Wunderground v.1.15,2013-04-12 05:40:00,
2013-04-12 01:50:00,58.1,57.3,29.66,SSW,207,6.0,6.0,97,0.21,,,0.32,Wunderground v.1.15,2013-04-12 05:50:00,
2013-04-12 02:00:00,58.0,57.4,29.66,SSW,193,6.0,6.0,98,0.22,,,0.37,Wunderground v.1.15,2013-04-12 06:00:00,
2013-04-12 02:10:00,57.8,57.2,29.65,South,188,2.0,6.0,98,0.21,,,0.41,Wunderground v.1.15,2013-04-12 06:10:00,
2013-04-12 02:20:00,57.6,57.0,29.65,South,185,2.0,2.0,98,0.22,,,0.44,Wunderground v.1.15,2013-04-12 06:20:00,
2013-04-12 02:25:00,57.5,56.9,29.64,South,185,1.0,2.0,98,0.16,,,0.45,Wunderground v.1.15,2013-04-12 06:25:00,
2013-04-12 02:30:00,57.5,56.9,29.63,South,185,0.0,0.0,98,0.13,,,0.46,Wunderground v.1.15,2013-04-12 06:30:00,
2013-04-12 02:40:00,57.5,56.9,29.63,South,185,0.0,0.0,98,0.07,,,0.47,Wunderground v.1.15,2013-04-12 06:40:00,
2013-04-12 02:50:00,57.6,57.3,29.61,South,185,0.0,0.0,99,0.10,,,0.49,Wunderground v.1.15,2013-04-12 06:50:00,
2013-04-12 02:55:00,57.8,57.5,29.62,South,185,0.0,0.0,99,0.10,,,0.49,Wunderground v.1.15,2013-04-12 06:55:00,
2013-04-12 03:05:00,57.6,57.0,29.61,South,174,0.0,0.0,98,0.15,,,0.51,Wunderground v.1.15,2013-04-12 07:05:00,
2013-04-12 03:10:00,57.5,56.9,29.60,South,174,0.0,0.0,98,0.10,,,0.51,Wunderground v.1.15,2013-04-12 07:10:00,
2013-04-12 03:15:00,57.5,56.9,29.59,South,174,0.0,0.0,98,0.10,,,0.52,Wunderground v.1.15,2013-04-12 07:15:00,
2013-04-12 03:20:00,57.3,56.7,29.57,South,171,0.0,0.0,98,0.06,,,0.52,Wunderground v.1.15,2013-04-12 07:20:00,
2013-04-12 03:30:00,57.2,56.6,29.56,SSE,164,0.0,0.0,98,0.00,,,0.52,Wunderground v.1.15,2013-04-12 07:30:00,
2013-04-12 03:40:00,57.0,56.4,29.57,SSE,164,0.0,0.0,98,0.00,,,0.52,Wunderground v.1.15,2013-04-12 07:40:00,
2013-04-12 03:45:00,57.0,56.4,29.57,SSE,164,0.0,0.0,98,0.00,,,0.53,Wunderground v.1.15,2013-04-12 07:45:00,
2013-04-12 03:50:00,56.9,56.3,29.56,SSE,164,0.0,0.0,98,0.00,,,0.53,Wunderground v.1.15,2013-04-12 07:50:00,
2013-04-12 04:00:00,56.9,56.3,29.56,SSE,164,0.0,0.0,98,0.00,,,0.53,Wunderground v.1.15,2013-04-12 08:00:00,
2013-04-12 04:05:00,56.9,56.3,29.55,SSE,164,0.0,0.0,98,0.00,,,0.53,Wunderground v.1.15,2013-04-12 08:05:00,
2013-04-12 04:10:00,56.9,56.6,29.55,SSE,164,0.0,0.0,99,0.00,,,0.53,Wunderground v.1.15,2013-04-12 08:10:00,
2013-04-12 04:20:00,56.9,56.6,29.55,SSE,164,0.0,0.0,99,0.00,,,0.53,Wunderground v.1.15,2013-04-12 08:20:00,
2013-04-12 04:30:00,56.7,56.4,29.55,SSE,164,0.0,0.0,99,0.00,,,0.53,Wunderground v.1.15,2013-04-12 08:30:00,
2013-04-12 04:35:00,56.7,56.4,29.55,SSE,164,0.0,0.0,99,0.00,,,0.53,Wunderground v.1.15,2013-04-12 08:35:00,
2013-04-12 04:45:00,56.6,56.3,29.55,SSE,164,0.0,0.0,99,0.00,,,0.53,Wunderground v.1.15,2013-04-12 08:45:00,
2013-04-12 04:50:00,56.5,56.2,29.55,SSE,164,0.0,0.0,99,0.00,,,0.53,Wunderground v.1.15,2013-04-12 08:50:00,
2013-04-12 04:55:00,56.5,56.2,29.55,SSE,164,0.0,0.0,99,0.00,,,0.53,Wunderground v.1.15,2013-04-12 08:55:00,
2013-04-12 05:05:00,56.3,56.0,29.54,SSE,164,0.0,0.0,99,0.00,,,0.53,Wunderground v.1.15,2013-04-12 09:05:00,
2013-04-12 05:15:00,56.3,56.0,29.54,SSE,164,0.0,0.0,99,0.00,,,0.53,Wunderground v.1.15,2013-04-12 09:15:00,
2013-04-12 05:25:00,56.3,56.0,29.54,SSE,164,0.0,0.0,99,0.00,,,0.53,Wunderground v.1.15,2013-04-12 09:25:00,
2013-04-12 05:30:00,56.2,55.9,29.54,SSE,164,0.0,0.0,99,0.00,,,0.53,Wunderground v.1.15,2013-04-12 09:30:00,
2013-04-12 05:40:00,55.9,55.6,29.54,SSE,164,0.0,0.0,99,0.00,,,0.53,Wunderground v.1.15,2013-04-12 09:40:00,
2013-04-12 05:50:00,55.4,55.1,29.53,SSE,164,0.0,0.0,99,0.00,,,0.53,Wunderground v.1.15,2013-04-12 09:50:00,
2013-04-12 05:55:00,55.3,55.0,29.53,SSE,164,0.0,0.0,99,0.00,,,0.53,Wunderground v.1.15,2013-04-12 09:55:00,
2013-04-12 06:05:00,55.0,54.7,29.53,SSE,164,0.0,0.0,99,0.00,,,0.53,Wunderground v.1.15,2013-04-12 10:05:00,
2013-04-12 06:10:00,54.8,54.5,29.54,SSE,164,0.0,0.0,99,0.00,,,0.53,Wunderground v.1.15,2013-04-12 10:10:00,
2013-04-12 06:15:00,54.7,54.4,29.54,SSE,164,0.0,0.0,99,0.00,,,0.53,Wunderground v.1.15,2013-04-12 10:15:00,
2013-04-12 06:20:00,54.5,54.2,29.54,SSE,164,0.0,0.0,99,0.00,,,0.53,Wunderground v.1.15,2013-04-12 10:20:00,
2013-04-12 06:30:00,54.5,54.2,29.55,SSE,164,0.0,0.0,99,0.00,,,0.53,Wunderground v.1.15,2013-04-12 10:30:00,
2013-04-12 06:40:00,54.8,54.5,29.55,SSE,164,0.0,0.0,99,0.00,,,0.53,Wunderground v.1.15,2013-04-12 10:40:00,
2013-04-12 06:45:00,55.0,54.7,29.55,SSE,164,0.0,0.0,99,0.00,,,0.53,Wunderground v.1.15,2013-04-12 10:45:00,
2013-04-12 06:50:00,55.1,54.8,29.56,SSE,164,0.0,0.0,99,0.00,,,0.53,Wunderground v.1.15,2013-04-12 10:50:00,
2013-04-12 07:00:00,55.6,55.3,29.57,SSE,164,0.0,0.0,99,0.00,,,0.53,Wunderground v.1.15,2013-04-12 11:00:00,
2013-04-12 07:10:00,55.6,55.3,29.57,SSE,164,0.0,0.0,99,0.00,,,0.53,Wunderground v.1.15,2013-04-12 11:10:00,
2013-04-12 07:15:00,55.7,55.4,29.58,SSE,164,0.0,0.0,99,0.00,,,0.53,Wunderground v.1.15,2013-04-12 11:15:00,
2013-04-12 07:20:00,55.9,55.6,29.59,SSW,211,1.0,2.0,99,0.00,,,0.54,Wunderground v.1.15,2013-04-12 11:20:00,
2013-04-12 07:30:00,56.9,56.6,29.59,SW,226,4.0,7.0,99,0.16,,,0.56,Wunderground v.1.15,2013-04-12 11:30:00,
2013-04-12 07:40:00,57.2,56.9,29.60,SSW,207,4.0,4.0,99,0.06,,,0.57,Wunderground v.1.15,2013-04-12 11:40:00,
2013-04-12 07:45:00,57.2,56.9,29.60,SSW,192,3.0,4.0,99,0.06,,,0.57,Wunderground v.1.15,2013-04-12 11:45:00,
2013-04-12 07:50:00,57.3,57.0,29.60,SW,223,3.0,3.0,99,0.05,,,0.57,Wunderground v.1.15,2013-04-12 11:50:00,
2013-04-12 08:00:00,57.3,57.0,29.61,SSW,195,2.0,5.0,99,0.04,,,0.58,Wunderground v.1.15,2013-04-12 12:00:00,
2013-04-12 08:05:00,57.3,57.0,29.61,SW,215,4.0,5.0,99,0.05,,,0.59,Wunderground v.1.15,2013-04-12 12:05:00,
2013-04-12 08:10:00,57.5,57.2,29.61,South,190,4.0,4.0,99,0.05,,,0.59,Wunderground v.1.15,2013-04-12 12:10:00,
2013-04-12 08:20:00,57.6,57.3,29.61,SSW,210,4.0,4.0,99,0.04,,,0.59,Wunderground v.1.15,2013-04-12 12:20:00,
2013-04-12 08:30:00,57.6,57.3,29.62,SSW,199,6.0,7.0,99,0.00,,,0.59,Wunderground v.1.15,2013-04-12 12:30:00,
2013-04-12 08:40:00,57.6,57.3,29.63,SW,231,7.0,8.0,99,0.14,,,0.61,Wunderground v.1.15,2013-04-12 12:40:00,
2013-04-12 08:45:00,57.6,57.3,29.63,SSW,193,7.0,8.0,99,0.10,,,0.61,Wunderground v.1.15,2013-04-12 12:45:00,
2013-04-12 08:50:00,57.5,56.9,29.63,SW,228,6.0,6.0,98,0.06,,,0.61,Wunderground v.1.15,2013-04-12 12:50:00,
2013-04-12 08:56:00,57.6,57.0,29.63,SSW,202,6.0,6.0,98,0.04,,,0.61,Wunderground v.1.15,2013-04-12 12:56:00,
2013-04-12 09:05:00,58.0,57.2,29.63,SSW,192,6.0,7.0,97,0.00,,,0.61,Wunderground v.1.15,2013-04-12 13:05:00,
2013-04-12 09:15:00,57.6,56.2,29.64,SSW,202,7.0,10.0,95,0.00,,,0.61,Wunderground v.1.15,2013-04-12 13:15:00,
2013-04-12 09:20:00,57.6,55.9,29.64,SSW,212,9.0,9.0,94,0.00,,,0.61,Wunderground v.1.15,2013-04-12 13:20:00,
2013-04-12 09:30:00,58.0,55.4,29.65,South,183,9.0,9.0,91,0.00,,,0.61,Wunderground v.1.15,2013-04-12 13:30:00,
2013-04-12 09:36:00,58.3,55.7,29.64,South,189,10.0,10.0,91,0.00,,,0.61,Wunderground v.1.15,2013-04-12 13:36:00,
2013-04-12 09:45:00,58.3,54.8,29.65,SW,229,10.0,11.0,88,0.00,,,0.61,Wunderground v.1.15,2013-04-12 13:45:00,
2013-04-12 09:50:00,58.1,54.6,29.66,SW,219,11.0,11.0,88,0.00,,,0.61,Wunderground v.1.15,2013-04-12 13:50:00,
2013-04-12 10:00:00,57.5,53.7,29.66,SSW,203,11.0,13.0,87,0.00,,,0.61,Wunderground v.1.15,2013-04-12 14:00:00,
2013-04-12 10:10:00,57.2,53.7,29.67,SW,223,10.0,10.0,88,0.00,,,0.61,Wunderground v.1.15,2013-04-12 14:10:00,
2013-04-12 10:20:00,56.6,53.4,29.67,SSW,211,8.0,14.0,89,0.00,,,0.61,Wunderground v.1.15,2013-04-12 14:20:00,
2013-04-12 10:30:00,55.7,53.1,29.68,SSW,212,9.0,9.0,91,0.00,,,0.62,Wunderground v.1.15,2013-04-12 14:30:00,
2013-04-12 10:35:00,55.4,53.1,29.68,WSW,240,9.0,9.0,92,0.00,,,0.62,Wunderground v.1.15,2013-04-12 14:35:00,
2013-04-12 10:40:00,55.6,53.6,29.68,SW,215,9.0,9.0,93,0.00,,,0.62,Wunderground v.1.15,2013-04-12 14:40:00,
2013-04-12 10:45:00,56.3,54.6,29.68,SW,233,8.0,12.0,94,0.00,,,0.62,Wunderground v.1.15,2013-04-12 14:45:00,
2013-04-12 10:50:00,56.5,53.9,29.68,South,179,7.0,9.0,91,0.00,,,0.62,Wunderground v.1.15,2013-04-12 14:50:00,
2013-04-12 11:00:00,56.9,53.4,29.69,SSW,203,11.0,11.0,88,0.00,,,0.62,Wunderground v.1.15,2013-04-12 15:00:00,
2013-04-12 11:10:00,57.5,54.0,29.69,SSW,205,9.0,9.0,88,0.00,,,0.62,Wunderground v.1.15,2013-04-12 15:10:00,
2013-04-12 11:15:00,57.3,52.8,29.69,SW,225,9.0,9.0,85,0.00,,,0.62,Wunderground v.1.15,2013-04-12 15:15:00,
2013-04-12 11:20:00,57.0,52.9,29.69,SSW,202,10.0,12.0,86,0.00,,,0.62,Wunderground v.1.15,2013-04-12 15:20:00,
2013-04-12 11:30:00,57.0,53.2,29.70,SSW,200,9.0,9.0,87,0.00,,,0.62,Wunderground v.1.15,2013-04-12 15:30:00,
2013-04-12 11:40:00,56.5,53.0,29.70,SSW,211,9.0,9.0,88,0.00,,,0.62,Wunderground v.1.15,2013-04-12 15:40:00,
2013-04-12 11:51:00,56.0,52.8,29.70,WSW,238,7.0,7.0,89,0.00,,,0.62,Wunderground v.1.15,2013-04-12 15:51:00,
2013-04-12 12:00:00,55.4,52.8,29.70,South,190,6.0,10.0,91,0.00,,,0.62,Wunderground v.1.15,2013-04-12 16:00:00,
2013-04-12 12:05:00,55.1,52.8,29.70,South,190,7.0,10.0,92,0.00,,,0.62,Wunderground v.1.15,2013-04-12 16:05:00,
2013-04-12 12:10:00,54.8,52.5,29.70,SSW,202,7.0,7.0,92,0.00,,,0.62,Wunderground v.1.15,2013-04-12 16:10:00,
2013-04-12 12:20:00,54.7,52.4,29.70,SSW,203,7.0,7.0,92,0.00,,,0.62,Wunderground v.1.15,2013-04-12 16:20:00,
2013-04-12 12:25:00,55.3,52.7,29.70,SSW,209,9.0,9.0,91,0.00,,,0.62,Wunderground v.1.15,2013-04-12 16:25:00,
2013-04-12 12:30:00,55.7,52.8,29.70,SSW,207,9.0,9.0,90,0.00,,,0.62,Wunderground v.1.15,2013-04-12 16:30:00,
2013-04-12 12:40:00,55.9,52.1,29.70,SSW,210,11.0,11.0,87,0.00,,,0.62,Wunderground v.1.15,2013-04-12 16:40:00,
2013-04-12 12:45:00,55.7,51.6,29.70,South,191,10.0,11.0,86,0.00,,,0.62,Wunderground v.1.15,2013-04-12 16:45:00,
2013-04-12 12:50:00,55.4,51.3,29.70,SSW,204,10.0,10.0,86,0.00,,,0.62,Wunderground v.1.15,2013-04-12 16:50:00,
2013-04-12 12:55:00,55.4,51.6,29.70,SW,234,10.0,10.0,87,0.00,,,0.62,Wunderground v.1.15,2013-04-12 16:55:00,
2013-04-12 13:00:00,55.3,51.5,29.71,SW,215,9.0,13.0,87,0.00,,,0.62,Wunderground v.1.15,2013-04-12 17:00:00,
2013-04-12 13:10:00,56.0,52.8,29.70,SSW,202,10.0,10.0,89,0.00,,,0.62,Wunderground v.1.15,2013-04-12 17:10:00,
2013-04-12 13:20:00,55.7,51.9,29.71,SW,217,10.0,10.0,87,0.00,,,0.62,Wunderground v.1.15,2013-04-12 17:20:00,
2013-04-12 13:30:00,56.5,53.0,29.70,SSW,194,9.0,9.0,88,0.00,,,0.62,Wunderground v.1.15,2013-04-12 17:30:00,
2013-04-12 13:40:00,57.2,52.7,29.71,South,177,10.0,12.0,85,0.00,,,0.62,Wunderground v.1.15,2013-04-12 17:40:00,
2013-04-12 13:50:00,57.3,51.2,29.71,SSE,167,10.0,18.0,80,0.00,,,0.62,Wunderground v.1.15,2013-04-12 17:50:00,
2013-04-12 13:55:00,57.0,51.9,29.71,SSW,213,12.0,18.0,83,0.00,,,0.62,Wunderground v.1.15,2013-04-12 17:55:00,
2013-04-12 14:00:00,57.8,52.0,29.72,SSW,196,12.0,12.0,81,0.00,,,0.62,Wunderground v.1.15,2013-04-12 18:00:00,
2013-04-12 14:05:00,58.0,51.9,29.72,SW,217,11.0,12.0,80,0.00,,,0.62,Wunderground v.1.15,2013-04-12 18:05:00,
2013-04-12 14:10:00,57.8,51.7,29.72,South,175,10.0,10.0,80,0.00,,,0.62,Wunderground v.1.15,2013-04-12 18:10:00,
2013-04-12 14:15:00,58.3,51.5,29.72,South,182,11.0,11.0,78,0.00,,,0.62,Wunderground v.1.15,2013-04-12 18:15:00,
2013-04-12 14:26:00,58.6,51.1,29.72,SW,219,11.0,12.0,76,0.00,,,0.62,Wunderground v.1.15,2013-04-12 18:26:00,
2013-04-12 15:30:00,60.2,49.6,29.72,SW,219,11.0,12.0,68,0.00,,,0.62,Wunderground v.1.15,2013-04-12 19:30:00,
2013-04-12 15:40:00,60.7,47.2,29.71,SW,225,11.0,11.0,61,0.00,,,0.62,Wunderground v.1.15,2013-04-12 19:40:00,
2013-04-12 15:50:00,60.5,47.0,29.72,SSW,211,12.0,12.0,61,0.00,,,0.62,Wunderground v.1.15,2013-04-12 19:50:00,
2013-04-12 15:55:00,61.0,47.9,29.72,SSW,205,12.0,12.0,62,0.00,,,0.62,Wunderground v.1.15,2013-04-12 19:55:00,
2013-04-12 16:00:00,60.5,45.6,29.72,SSW,192,11.0,11.0,58,0.00,,,0.62,Wunderground v.1.15,2013-04-12 20:00:00,
2013-04-12 16:10:00,59.9,45.5,29.72,SW,216,9.0,13.0,59,0.00,,,0.62,Wunderground v.1.15,2013-04-12 20:10:00,
2013-04-12 16:20:00,60.4,44.2,29.72,SSW,213,12.0,12.0,55,0.00,,,0.62,Wunderground v.1.15,2013-04-12 20:20:00,
2013-04-12 16:30:00,60.7,44.9,29.72,SW,219,10.0,11.0,56,0.00,,,0.62,Wunderground v.1.15,2013-04-12 20:30:00,
2013-04-12 16:40:00,60.4,44.6,29.72,SW,225,12.0,12.0,56,0.00,,,0.62,Wunderground v.1.15,2013-04-12 20:40:00,
2013-04-12 16:50:00,60.7,45.4,29.72,South,184,10.0,11.0,57,0.00,,,0.62,Wunderground v.1.15,2013-04-12 20:50:00,
2013-04-12 17:00:00,60.5,43.3,29.73,SW,235,11.0,12.0,53,0.00,,,0.62,Wunderground v.1.15,2013-04-12 21:00:00,
2013-04-12 17:10:00,60.2,43.0,29.73,SW,225,12.0,12.0,53,0.00,,,0.62,Wunderground v.1.15,2013-04-12 21:10:00,
2013-04-12 17:15:00,60.1,43.9,29.73,South,190,12.0,12.0,55,0.00,,,0.62,Wunderground v.1.15,2013-04-12 21:15:00,
2013-04-12 17:25:00,60.4,43.7,29.73,SSW,209,10.0,13.0,54,0.00,,,0.62,Wunderground v.1.15,2013-04-12 21:25:00,
2013-04-12 17:30:00,60.2,44.0,29.73,SSW,208,11.0,11.0,55,0.00,,,0.62,Wunderground v.1.15,2013-04-12 21:30:00,
2013-04-12 17:45:00,60.2,42.5,29.74,West,266,11.0,11.0,52,0.00,,,0.62,Wunderground v.1.15,2013-04-12 21:45:00,
2013-04-12 17:50:00,60.2,43.0,29.73,SSW,193,10.0,11.0,53,0.00,,,0.62,Wunderground v.1.15,2013-04-12 21:50:00,
2013-04-12 18:00:00,60.4,43.2,29.73,SSE,168,9.0,16.0,53,0.00,,,0.62,Wunderground v.1.15,2013-04-12 22:00:00,
2013-04-12 18:05:00,60.1,42.4,29.74,SSW,206,9.0,16.0,52,0.00,,,0.62,Wunderground v.1.15,2013-04-12 22:05:00,
2013-04-12 18:10:00,59.9,42.2,29.74,SSW,202,10.0,12.0,52,0.00,,,0.62,Wunderground v.1.15,2013-04-12 22:10:00,
2013-04-12 18:15:00,59.8,42.1,29.74,South,188,9.0,12.0,52,0.00,,,0.62,Wunderground v.1.15,2013-04-12 22:15:00,
2013-04-12 18:20:00,59.8,43.1,29.74,SW,232,9.0,9.0,54,0.00,,,0.62,Wunderground v.1.15,2013-04-12 22:20:00,
2013-04-12 18:30:00,59.5,42.3,29.74,SSW,204,8.0,8.0,53,0.00,,,0.62,Wunderground v.1.15,2013-04-12 22:30:00,
2013-04-12 18:40:00,59.2,42.1,29.74,SSW,206,8.0,10.0,53,0.00,,,0.62,Wunderground v.1.15,2013-04-12 22:40:00,
2013-04-12 18:50:00,58.6,41.5,29.74,SSW,207,9.0,10.0,53,0.00,,,0.62,Wunderground v.1.15,2013-04-12 22:50:00,
2013-04-12 19:00:00,58.3,41.7,29.75,SSW,209,8.0,8.0,54,0.00,,,0.62,Wunderground v.1.15,2013-04-12 23:00:00,
2013-04-12 19:10:00,57.8,41.7,29.74,South,189,8.0,8.0,55,0.00,,,0.62,Wunderground v.1.15,2013-04-12 23:10:00,
2013-04-12 19:20:00,57.5,41.9,29.75,SW,227,6.0,9.0,56,0.00,,,0.62,Wunderground v.1.15,2013-04-12 23:20:00,
2013-04-12 19:25:00,57.2,41.6,29.75,South,186,6.0,9.0,56,0.00,,,0.62,Wunderground v.1.15,2013-04-12 23:25:00,
2013-04-12 19:35:00,56.7,41.6,29.75,SSW,207,6.0,7.0,57,0.00,,,0.62,Wunderground v.1.15,2013-04-12 23:35:00,
2013-04-12 19:40:00,56.3,41.3,29.75,SSW,205,6.0,6.0,57,0.00,,,0.62,Wunderground v.1.15,2013-04-12 23:40:00,
2013-04-12 19:50:00,55.6,41.9,29.76,SSW,202,3.0,4.0,60,0.00,,,0.62,Wunderground v.1.15,2013-04-12 23:50:00,
2013-04-12 20:00:00,54.8,41.6,29.76,SW,225,3.0,3.0,61,0.00,,,0.62,Wunderground v.1.15,2013-04-13 00:00:00,
2013-04-12 20:10:00,54.1,41.4,29.76,SW,215,1.0,1.0,62,0.00,,,0.62,Wunderground v.1.15,2013-04-13 00:10:00,
2013-04-12 20:15:00,53.9,41.6,29.76,SW,219,1.0,1.0,63,0.00,,,0.62,Wunderground v.1.15,2013-04-13 00:15:00,
2013-04-12 20:20:00,53.2,41.7,29.77,SW,216,1.0,1.0,65,0.00,,,0.62,Wunderground v.1.15,2013-04-13 00:20:00,
2013-04-12 20:30:00,52.0,41.0,29.77,SSW,213,0.0,1.0,66,0.00,,,0.62,Wunderground v.1.15,2013-04-13 00:30:00,
2013-04-12 20:40:00,51.0,40.4,29.77,SSW,207,0.0,0.0,67,0.00,,,0.62,Wunderground v.1.15,2013-04-13 00:40:00,
2013-04-12 20:50:00,50.1,40.3,29.78,SW,221,1.0,1.0,69,0.00,,,0.62,Wunderground v.1.15,2013-04-13 00:50:00,
2013-04-12 20:55:00,50.5,39.9,29.78,SSW,206,1.0,1.0,67,0.00,,,0.62,Wunderground v.1.15,2013-04-13 00:55:00,
2013-04-12 21:05:00,50.8,39.8,29.79,SW,225,1.0,1.0,66,0.00,,,0.62,Wunderground v.1.15,2013-04-13 01:05:00,
2013-04-12 21:10:00,51.0,39.2,29.79,SW,215,1.0,1.0,64,0.00,,,0.62,Wunderground v.1.15,2013-04-13 01:10:00,
2013-04-12 21:20:00,51.7,38.7,29.80,SW,228,2.0,2.0,61,0.00,,,0.62,Wunderground v.1.15,2013-04-13 01:20:00,
2013-04-12 21:30:00,51.1,38.9,29.81,SW,222,1.0,1.0,63,0.00,,,0.62,Wunderground v.1.15,2013-04-13 01:30:00,
2013-04-12 21:40:00,50.7,38.6,29.82,SSW,209,0.0,0.0,63,0.00,,,0.62,Wunderground v.1.15,2013-04-13 01:40:00,
2013-04-12 21:50:00,50.7,38.1,29.83,SW,225,1.0,1.0,62,0.00,,,0.62,Wunderground v.1.15,2013-04-13 01:50:00,
2013-04-12 22:00:00,50.5,38.0,29.83,SW,219,1.0,1.0,62,0.00,,,0.62,Wunderground v.1.15,2013-04-13 02:00:00,
2013-04-12 22:10:00,50.5,38.0,29.84,SW,234,2.0,4.0,62,0.00,,,0.62,Wunderground v.1.15,2013-04-13 02:10:00,
2013-04-12 22:20:00,51.0,38.0,29.85,SW,232,2.0,2.0,61,0.00,,,0.62,Wunderground v.1.15,2013-04-13 02:20:00,
2013-04-12 22:25:00,51.0,37.6,29.85,WSW,242,1.0,2.0,60,0.00,,,0.62,Wunderground v.1.15,2013-04-13 02:25:00,
2013-04-12 22:35:00,51.0,36.7,29.85,SW,232,1.0,4.0,58,0.00,,,0.62,Wunderground v.1.15,2013-04-13 02:35:00,
2013-04-12 22:40:00,51.3,36.1,29.86,SW,226,1.0,1.0,56,0.00,,,0.62,Wunderground v.1.15,2013-04-13 02:40:00,
2013-04-12 22:50:00,51.6,35.5,29.86,SW,225,4.0,4.0,54,0.00,,,0.62,Wunderground v.1.15,2013-04-13 02:50:00,
2013-04-12 23:00:00,51.0,35.4,29.86,SW,225,1.0,1.0,55,0.00,,,0.62,Wunderground v.1.15,2013-04-13 03:00:00,
2013-04-12 23:10:00,50.7,34.6,29.87,WSW,249,1.0,3.0,54,0.00,,,0.62,Wunderground v.1.15,2013-04-13 03:10:00,
2013-04-12 23:15:00,50.8,34.7,29.87,WSW,243,2.0,3.0,54,0.00,,,0.62,Wunderground v.1.15,2013-04-13 03:15:00,
2013-04-12 23:25:00,50.7,34.6,29.88,WNW,295,0.0,5.0,54,0.00,,,0.62,Wunderground v.1.15,2013-04-13 03:25:00,
2013-04-12 23:35:00,50.1,34.5,29.88,WNW,295,0.0,0.0,55,0.00,,,0.62,Wunderground v.1.15,2013-04-13 03:35:00,
2013-04-12 23:45:00,49.5,34.9,29.88,WNW,288,0.0,0.0,57,0.00,,,0.62,Wunderground v.1.15,2013-04-13 03:45:00,
2013-04-12 23:50:00,49.2,34.6,29.88,WSW,248,0.0,0.0,57,0.00,,,0.62,Wunderground v.1.15,2013-04-13 03:50:00,
2013-04-12 23:55:00,49.2,34.2,29.88,SW,230,0.0,0.0,56,0.00,,,0.62,Wunderground v.1.15,2013-04-13 03:55:00,